sensor_id;sensor_type;location;lat;lon;timestamp;P1;durP1;ratioP1;P2;durP2;ratioP2
63818;SDS011;49970;54.976;73.248;2023-03-01T00:01:30;7.32;;;6.35;;
63818;SDS011;49970;54.976;73.248;2023-03-01T00:03:57;8.45;;;7.55;;
63818;SDS011;49970;54.976;73.248;2023-03-01T00:06:24;8.32;;;7.50;;
63818;SDS011;49970;54.976;73.248;2023-03-01T00:09:01;7.45;;;6.75;;
63818;SDS011;49970;54.976;73.248;2023-03-01T00:11:34;7.00;;;6.25;;
63818;SDS011;49970;54.976;73.248;2023-03-01T00:14:06;7.85;;;7.05;;
63818;SDS011;49970;54.976;73.248;2023-03-01T00:16:34;8.02;;;7.22;;
63818;SDS011;49970;54.976;73.248;2023-03-01T00:19:04;7.65;;;6.93;;
63818;SDS011;49970;54.976;73.248;2023-03-01T00:21:31;9.05;;;6.85;;
63818;SDS011;49970;54.976;73.248;2023-03-01T00:24:02;7.45;;;6.72;;
63818;SDS011;49970;54.976;73.248;2023-03-01T00:26:31;8.93;;;7.85;;
63818;SDS011;49970;54.976;73.248;2023-03-01T00:29:07;8.23;;;7.43;;
63818;SDS011;49970;54.976;73.248;2023-03-01T00:31:33;9.13;;;7.97;;
63818;SDS011;49970;54.976;73.248;2023-03-01T00:34:01;12.35;;;7.40;;
63818;SDS011;49970;54.976;73.248;2023-03-01T00:36:33;9.50;;;8.57;;
63818;SDS011;49970;54.976;73.248;2023-03-01T00:39:01;11.68;;;8.30;;
63818;SDS011;49970;54.976;73.248;2023-03-01T00:41:29;12.75;;;8.88;;
63818;SDS011;49970;54.976;73.248;2023-03-01T00:44:06;12.13;;;9.07;;
63818;SDS011;49970;54.976;73.248;2023-03-01T00:46:32;13.40;;;8.63;;
63818;SDS011;49970;54.976;73.248;2023-03-01T00:48:59;11.80;;;8.95;;
63818;SDS011;49970;54.976;73.248;2023-03-01T00:51:27;8.20;;;7.38;;
63818;SDS011;49970;54.976;73.248;2023-03-01T00:54:05;9.43;;;7.93;;
63818;SDS011;49970;54.976;73.248;2023-03-01T00:56:37;11.77;;;8.85;;
63818;SDS011;49970;54.976;73.248;2023-03-01T00:59:03;11.00;;;8.90;;
63818;SDS011;49970;54.976;73.248;2023-03-01T01:01:30;16.50;;;8.75;;
63818;SDS011;49970;54.976;73.248;2023-03-01T01:03:58;10.13;;;8.27;;
63818;SDS011;49970;54.976;73.248;2023-03-01T01:06:41;9.55;;;8.63;;
63818;SDS011;49970;54.976;73.248;2023-03-01T01:09:13;11.77;;;8.80;;
63818;SDS011;49970;54.976;73.248;2023-03-01T01:11:53;11.32;;;9.05;;
63818;SDS011;49970;54.976;73.248;2023-03-01T01:14:24;8.65;;;7.75;;
63818;SDS011;49970;54.976;73.248;2023-03-01T01:16:50;10.07;;;8.57;;
63818;SDS011;49970;54.976;73.248;2023-03-01T01:19:17;10.30;;;8.23;;
63818;SDS011;49970;54.976;73.248;2023-03-01T01:21:43;8.82;;;7.93;;
63818;SDS011;49970;54.976;73.248;2023-03-01T01:24:10;12.13;;;8.10;;
63818;SDS011;49970;54.976;73.248;2023-03-01T01:26:37;8.88;;;7.60;;
63818;SDS011;49970;54.976;73.248;2023-03-01T01:29:09;9.35;;;7.72;;
63818;SDS011;49970;54.976;73.248;2023-03-01T01:31:36;10.05;;;7.50;;
63818;SDS011;49970;54.976;73.248;2023-03-01T01:34:04;15.73;;;8.23;;
63818;SDS011;49970;54.976;73.248;2023-03-01T01:36:32;9.60;;;7.20;;
63818;SDS011;49970;54.976;73.248;2023-03-01T01:39:04;8.27;;;7.38;;
63818;SDS011;49970;54.976;73.248;2023-03-01T01:41:31;8.77;;;7.53;;
63818;SDS011;49970;54.976;73.248;2023-03-01T01:46:45;13.55;;;8.63;;
63818;SDS011;49970;54.976;73.248;2023-03-01T01:49:23;11.65;;;8.55;;
63818;SDS011;49970;54.976;73.248;2023-03-01T01:52:10;10.75;;;8.93;;
63818;SDS011;49970;54.976;73.248;2023-03-01T01:54:53;11.82;;;8.85;;
63818;SDS011;49970;54.976;73.248;2023-03-01T01:57:48;8.38;;;7.53;;
63818;SDS011;49970;54.976;73.248;2023-03-01T02:00:21;12.70;;;8.93;;
63818;SDS011;49970;54.976;73.248;2023-03-01T02:03:24;9.88;;;8.70;;
63818;SDS011;49970;54.976;73.248;2023-03-01T02:05:57;13.30;;;8.75;;
63818;SDS011;49970;54.976;73.248;2023-03-01T02:08:37;12.07;;;8.80;;
63818;SDS011;49970;54.976;73.248;2023-03-01T02:11:11;14.18;;;9.45;;
63818;SDS011;49970;54.976;73.248;2023-03-01T02:13:50;12.48;;;9.48;;
63818;SDS011;49970;54.976;73.248;2023-03-01T02:16:17;11.20;;;9.07;;
63818;SDS011;49970;54.976;73.248;2023-03-01T02:18:43;12.88;;;9.13;;
63818;SDS011;49970;54.976;73.248;2023-03-01T02:21:23;14.43;;;9.52;;
63818;SDS011;49970;54.976;73.248;2023-03-01T02:27:14;12.17;;;8.67;;
63818;SDS011;49970;54.976;73.248;2023-03-01T02:29:43;10.95;;;9.10;;
63818;SDS011;49970;54.976;73.248;2023-03-01T02:32:09;10.35;;;8.57;;
63818;SDS011;49970;54.976;73.248;2023-03-01T02:34:37;11.18;;;9.93;;
63818;SDS011;49970;54.976;73.248;2023-03-01T02:37:15;14.68;;;10.07;;
63818;SDS011;49970;54.976;73.248;2023-03-01T02:39:55;12.15;;;9.65;;
63818;SDS011;49970;54.976;73.248;2023-03-01T02:42:30;11.50;;;9.63;;
63818;SDS011;49970;54.976;73.248;2023-03-01T02:44:59;10.77;;;9.38;;
63818;SDS011;49970;54.976;73.248;2023-03-01T02:47:25;14.30;;;9.63;;
63818;SDS011;49970;54.976;73.248;2023-03-01T02:49:52;12.90;;;10.30;;
63818;SDS011;49970;54.976;73.248;2023-03-01T02:52:36;12.20;;;10.68;;
63818;SDS011;49970;54.976;73.248;2023-03-01T02:55:13;11.90;;;9.98;;
63818;SDS011;49970;54.976;73.248;2023-03-01T02:57:47;15.13;;;11.18;;
63818;SDS011;49970;54.976;73.248;2023-03-01T03:00:17;14.32;;;10.98;;
63818;SDS011;49970;54.976;73.248;2023-03-01T03:02:56;15.60;;;12.57;;
63818;SDS011;49970;54.976;73.248;2023-03-01T03:05:25;16.67;;;12.68;;
63818;SDS011;49970;54.976;73.248;2023-03-01T03:07:56;17.52;;;11.90;;
63818;SDS011;49970;54.976;73.248;2023-03-01T03:10:35;17.52;;;11.35;;
63818;SDS011;49970;54.976;73.248;2023-03-01T03:13:04;17.27;;;11.27;;
63818;SDS011;49970;54.976;73.248;2023-03-01T03:15:39;20.48;;;12.52;;
63818;SDS011;49970;54.976;73.248;2023-03-01T03:18:08;21.77;;;12.27;;
63818;SDS011;49970;54.976;73.248;2023-03-01T03:20:36;18.65;;;12.85;;
63818;SDS011;49970;54.976;73.248;2023-03-01T03:23:04;18.92;;;12.70;;
63818;SDS011;49970;54.976;73.248;2023-03-01T03:25:30;24.13;;;13.48;;
63818;SDS011;49970;54.976;73.248;2023-03-01T03:28:06;16.25;;;13.00;;
63818;SDS011;49970;54.976;73.248;2023-03-01T03:30:37;17.77;;;13.38;;
63818;SDS011;49970;54.976;73.248;2023-03-01T03:33:05;20.02;;;13.82;;
63818;SDS011;49970;54.976;73.248;2023-03-01T03:35:34;25.67;;;14.85;;
63818;SDS011;49970;54.976;73.248;2023-03-01T03:38:06;28.23;;;12.43;;
63818;SDS011;49970;54.976;73.248;2023-03-01T03:40:48;24.33;;;14.38;;
63818;SDS011;49970;54.976;73.248;2023-03-01T03:43:39;16.30;;;12.63;;
63818;SDS011;49970;54.976;73.248;2023-03-01T03:46:08;20.55;;;14.23;;
63818;SDS011;49970;54.976;73.248;2023-03-01T03:48:36;23.70;;;15.30;;
63818;SDS011;49970;54.976;73.248;2023-03-01T03:51:05;27.15;;;16.05;;
63818;SDS011;49970;54.976;73.248;2023-03-01T03:53:32;38.85;;;16.95;;
63818;SDS011;49970;54.976;73.248;2023-03-01T03:55:59;25.17;;;15.50;;
63818;SDS011;49970;54.976;73.248;2023-03-01T03:58:28;22.92;;;15.20;;
63818;SDS011;49970;54.976;73.248;2023-03-01T04:00:55;23.25;;;14.68;;
63818;SDS011;49970;54.976;73.248;2023-03-01T04:03:31;28.42;;;14.73;;
63818;SDS011;49970;54.976;73.248;2023-03-01T04:06:02;19.48;;;14.63;;
63818;SDS011;49970;54.976;73.248;2023-03-01T04:08:35;23.35;;;16.65;;
63818;SDS011;49970;54.976;73.248;2023-03-01T04:11:02;34.03;;;19.35;;
63818;SDS011;49970;54.976;73.248;2023-03-01T04:13:49;34.88;;;19.98;;
63818;SDS011;49970;54.976;73.248;2023-03-01T04:16:16;39.95;;;22.55;;
63818;SDS011;49970;54.976;73.248;2023-03-01T04:18:43;30.40;;;19.02;;
63818;SDS011;49970;54.976;73.248;2023-03-01T04:21:09;27.60;;;17.67;;
63818;SDS011;49970;54.976;73.248;2023-03-01T04:23:37;34.75;;;17.27;;
63818;SDS011;49970;54.976;73.248;2023-03-01T04:26:04;29.17;;;18.17;;
63818;SDS011;49970;54.976;73.248;2023-03-01T04:28:33;25.40;;;14.60;;
63818;SDS011;49970;54.976;73.248;2023-03-01T04:31:17;21.27;;;14.20;;
63818;SDS011;49970;54.976;73.248;2023-03-01T04:33:56;23.95;;;14.80;;
63818;SDS011;49970;54.976;73.248;2023-03-01T04:36:27;18.33;;;13.98;;
63818;SDS011;49970;54.976;73.248;2023-03-01T04:38:55;23.23;;;13.00;;
63818;SDS011;49970;54.976;73.248;2023-03-01T04:41:22;17.27;;;12.23;;
63818;SDS011;49970;54.976;73.248;2023-03-01T04:43:49;22.45;;;12.50;;
63818;SDS011;49970;54.976;73.248;2023-03-01T04:46:17;16.25;;;12.82;;
63818;SDS011;49970;54.976;73.248;2023-03-01T04:48:45;14.27;;;11.68;;
63818;SDS011;49970;54.976;73.248;2023-03-01T04:51:12;12.18;;;10.88;;
63818;SDS011;49970;54.976;73.248;2023-03-01T04:53:39;13.07;;;11.68;;
63818;SDS011;49970;54.976;73.248;2023-03-01T04:56:16;21.50;;;11.63;;
63818;SDS011;49970;54.976;73.248;2023-03-01T04:58:46;12.70;;;11.40;;
63818;SDS011;49970;54.976;73.248;2023-03-01T05:01:13;15.15;;;12.02;;
63818;SDS011;49970;54.976;73.248;2023-03-01T05:03:47;18.48;;;12.73;;
63818;SDS011;49970;54.976;73.248;2023-03-01T05:06:15;18.92;;;12.93;;
63818;SDS011;49970;54.976;73.248;2023-03-01T05:08:52;15.38;;;12.77;;
63818;SDS011;49970;54.976;73.248;2023-03-01T05:11:18;15.43;;;12.35;;
63818;SDS011;49970;54.976;73.248;2023-03-01T05:13:44;16.33;;;12.82;;
63818;SDS011;49970;54.976;73.248;2023-03-01T05:16:11;21.13;;;13.30;;
63818;SDS011;49970;54.976;73.248;2023-03-01T05:18:47;17.17;;;13.77;;
63818;SDS011;49970;54.976;73.248;2023-03-01T05:21:20;18.10;;;14.17;;
63818;SDS011;49970;54.976;73.248;2023-03-01T05:23:46;18.25;;;14.27;;
63818;SDS011;49970;54.976;73.248;2023-03-01T05:26:19;18.60;;;14.45;;
63818;SDS011;49970;54.976;73.248;2023-03-01T05:28:47;17.00;;;13.15;;
63818;SDS011;49970;54.976;73.248;2023-03-01T05:31:14;16.77;;;13.95;;
63818;SDS011;49970;54.976;73.248;2023-03-01T05:33:40;19.02;;;13.63;;
63818;SDS011;49970;54.976;73.248;2023-03-01T05:36:07;17.27;;;13.95;;
63818;SDS011;49970;54.976;73.248;2023-03-01T05:38:35;16.42;;;13.93;;
63818;SDS011;49970;54.976;73.248;2023-03-01T05:41:01;18.40;;;13.43;;
63818;SDS011;49970;54.976;73.248;2023-03-01T05:43:30;18.38;;;14.30;;
63818;SDS011;49970;54.976;73.248;2023-03-01T05:46:04;22.52;;;15.07;;
63818;SDS011;49970;54.976;73.248;2023-03-01T05:48:35;22.75;;;16.65;;
63818;SDS011;49970;54.976;73.248;2023-03-01T05:51:11;18.80;;;15.48;;
63818;SDS011;49970;54.976;73.248;2023-03-01T05:53:37;28.02;;;15.82;;
63818;SDS011;49970;54.976;73.248;2023-03-01T05:56:04;21.98;;;15.05;;
63818;SDS011;49970;54.976;73.248;2023-03-01T05:58:35;19.10;;;15.73;;
63818;SDS011;49970;54.976;73.248;2023-03-01T06:01:01;17.88;;;15.15;;
63818;SDS011;49970;54.976;73.248;2023-03-01T06:03:27;18.67;;;15.07;;
63818;SDS011;49970;54.976;73.248;2023-03-01T06:05:57;17.88;;;14.32;;
63818;SDS011;49970;54.976;73.248;2023-03-01T06:08:24;18.15;;;14.07;;
63818;SDS011;49970;54.976;73.248;2023-03-01T06:11:01;18.35;;;15.23;;
63818;SDS011;49970;54.976;73.248;2023-03-01T06:13:28;24.73;;;16.65;;
63818;SDS011;49970;54.976;73.248;2023-03-01T06:15:58;19.77;;;15.63;;
63818;SDS011;49970;54.976;73.248;2023-03-01T06:18:25;18.75;;;16.15;;
63818;SDS011;49970;54.976;73.248;2023-03-01T06:20:54;23.40;;;17.42;;
63818;SDS011;49970;54.976;73.248;2023-03-01T06:23:22;23.60;;;18.48;;
63818;SDS011;49970;54.976;73.248;2023-03-01T06:25:48;23.58;;;18.63;;
63818;SDS011;49970;54.976;73.248;2023-03-01T06:28:15;28.77;;;20.95;;
63818;SDS011;49970;54.976;73.248;2023-03-01T06:30:41;28.20;;;20.73;;
63818;SDS011;49970;54.976;73.248;2023-03-01T06:33:18;29.38;;;22.27;;
63818;SDS011;49970;54.976;73.248;2023-03-01T06:35:50;27.95;;;22.85;;
63818;SDS011;49970;54.976;73.248;2023-03-01T06:38:16;31.10;;;22.08;;
63818;SDS011;49970;54.976;73.248;2023-03-01T06:40:45;32.97;;;24.08;;
63818;SDS011;49970;54.976;73.248;2023-03-01T06:43:17;31.42;;;23.30;;
63818;SDS011;49970;54.976;73.248;2023-03-01T06:45:43;29.85;;;23.23;;
63818;SDS011;49970;54.976;73.248;2023-03-01T06:48:09;29.48;;;23.33;;
63818;SDS011;49970;54.976;73.248;2023-03-01T06:50:42;30.13;;;24.45;;
63818;SDS011;49970;54.976;73.248;2023-03-01T06:53:08;35.55;;;24.88;;
63818;SDS011;49970;54.976;73.248;2023-03-01T06:55:35;29.02;;;23.35;;
63818;SDS011;49970;54.976;73.248;2023-03-01T06:58:01;30.88;;;23.08;;
63818;SDS011;49970;54.976;73.248;2023-03-01T07:00:29;30.67;;;22.23;;
63818;SDS011;49970;54.976;73.248;2023-03-01T07:02:57;35.13;;;24.70;;
63818;SDS011;49970;54.976;73.248;2023-03-01T07:05:25;32.35;;;24.40;;
63818;SDS011;49970;54.976;73.248;2023-03-01T07:07:56;32.50;;;23.80;;
63818;SDS011;49970;54.976;73.248;2023-03-01T07:10:27;27.25;;;21.95;;
63818;SDS011;49970;54.976;73.248;2023-03-01T07:12:56;30.98;;;23.10;;
63818;SDS011;49970;54.976;73.248;2023-03-01T07:15:23;35.08;;;22.95;;
63818;SDS011;49970;54.976;73.248;2023-03-01T07:17:51;29.77;;;22.52;;
63818;SDS011;49970;54.976;73.248;2023-03-01T07:20:27;27.52;;;21.10;;
63818;SDS011;49970;54.976;73.248;2023-03-01T07:22:54;34.15;;;22.08;;
63818;SDS011;49970;54.976;73.248;2023-03-01T07:25:24;24.73;;;19.95;;
63818;SDS011;49970;54.976;73.248;2023-03-01T07:27:50;29.85;;;21.67;;
63818;SDS011;49970;54.976;73.248;2023-03-01T07:30:18;26.80;;;21.00;;
63818;SDS011;49970;54.976;73.248;2023-03-01T07:32:44;37.17;;;22.63;;
63818;SDS011;49970;54.976;73.248;2023-03-01T07:35:11;27.88;;;19.73;;
63818;SDS011;49970;54.976;73.248;2023-03-01T07:37:37;30.15;;;20.48;;
63818;SDS011;49970;54.976;73.248;2023-03-01T07:40:03;28.83;;;20.75;;
63818;SDS011;49970;54.976;73.248;2023-03-01T07:42:30;30.77;;;20.88;;
63818;SDS011;49970;54.976;73.248;2023-03-01T07:44:58;40.05;;;20.63;;
63818;SDS011;49970;54.976;73.248;2023-03-01T07:47:33;30.88;;;18.60;;
63818;SDS011;49970;54.976;73.248;2023-03-01T07:49:59;26.38;;;19.50;;
63818;SDS011;49970;54.976;73.248;2023-03-01T07:52:26;27.80;;;19.48;;
63818;SDS011;49970;54.976;73.248;2023-03-01T07:54:53;27.33;;;18.70;;
63818;SDS011;49970;54.976;73.248;2023-03-01T07:57:19;24.23;;;18.63;;
63818;SDS011;49970;54.976;73.248;2023-03-01T07:59:45;25.25;;;18.70;;
63818;SDS011;49970;54.976;73.248;2023-03-01T08:02:11;26.73;;;19.20;;
63818;SDS011;49970;54.976;73.248;2023-03-01T08:04:38;25.67;;;18.65;;
63818;SDS011;49970;54.976;73.248;2023-03-01T08:07:04;27.98;;;18.88;;
63818;SDS011;49970;54.976;73.248;2023-03-01T08:09:31;28.10;;;18.88;;
63818;SDS011;49970;54.976;73.248;2023-03-01T08:12:00;26.20;;;18.27;;
63818;SDS011;49970;54.976;73.248;2023-03-01T08:14:36;25.75;;;19.00;;
63818;SDS011;49970;54.976;73.248;2023-03-01T08:17:02;25.00;;;19.13;;
63818;SDS011;49970;54.976;73.248;2023-03-01T08:19:29;22.95;;;17.85;;
63818;SDS011;49970;54.976;73.248;2023-03-01T08:22:05;25.23;;;18.20;;
63818;SDS011;49970;54.976;73.248;2023-03-01T08:24:42;26.35;;;18.08;;
63818;SDS011;49970;54.976;73.248;2023-03-01T08:27:08;25.73;;;18.38;;
63818;SDS011;49970;54.976;73.248;2023-03-01T08:29:34;22.10;;;17.80;;
63818;SDS011;49970;54.976;73.248;2023-03-01T08:32:00;21.95;;;17.33;;
63818;SDS011;49970;54.976;73.248;2023-03-01T08:34:27;22.75;;;15.38;;
63818;SDS011;49970;54.976;73.248;2023-03-01T08:37:02;22.25;;;16.13;;
63818;SDS011;49970;54.976;73.248;2023-03-01T08:39:28;22.52;;;16.55;;
63818;SDS011;49970;54.976;73.248;2023-03-01T08:41:55;17.17;;;14.63;;
63818;SDS011;49970;54.976;73.248;2023-03-01T08:44:22;20.08;;;16.27;;
63818;SDS011;49970;54.976;73.248;2023-03-01T08:46:48;19.33;;;15.23;;
63818;SDS011;49970;54.976;73.248;2023-03-01T08:49:21;24.87;;;15.37;;
63818;SDS011;49970;54.976;73.248;2023-03-01T08:51:47;24.80;;;16.55;;
63818;SDS011;49970;54.976;73.248;2023-03-01T08:54:19;23.45;;;17.55;;
63818;SDS011;49970;54.976;73.248;2023-03-01T08:56:47;31.23;;;16.88;;
63818;SDS011;49970;54.976;73.248;2023-03-01T08:59:15;26.27;;;17.65;;
63818;SDS011;49970;54.976;73.248;2023-03-01T09:01:42;26.80;;;16.75;;
63818;SDS011;49970;54.976;73.248;2023-03-01T09:04:09;24.42;;;16.80;;
63818;SDS011;49970;54.976;73.248;2023-03-01T09:06:37;22.35;;;17.25;;
63818;SDS011;49970;54.976;73.248;2023-03-01T09:09:04;26.60;;;18.60;;
63818;SDS011;49970;54.976;73.248;2023-03-01T09:11:31;35.35;;;18.50;;
63818;SDS011;49970;54.976;73.248;2023-03-01T09:13:58;28.17;;;20.30;;
63818;SDS011;49970;54.976;73.248;2023-03-01T09:16:29;32.05;;;20.85;;
63818;SDS011;49970;54.976;73.248;2023-03-01T09:18:59;31.52;;;21.65;;
63818;SDS011;49970;54.976;73.248;2023-03-01T09:21:35;26.95;;;19.15;;
63818;SDS011;49970;54.976;73.248;2023-03-01T09:24:02;28.08;;;21.17;;
63818;SDS011;49970;54.976;73.248;2023-03-01T09:26:39;33.47;;;20.92;;
63818;SDS011;49970;54.976;73.248;2023-03-01T09:29:05;29.73;;;20.02;;
63818;SDS011;49970;54.976;73.248;2023-03-01T09:31:31;30.13;;;21.42;;
63818;SDS011;49970;54.976;73.248;2023-03-01T09:34:03;29.80;;;20.80;;
63818;SDS011;49970;54.976;73.248;2023-03-01T09:36:30;32.67;;;21.85;;
63818;SDS011;49970;54.976;73.248;2023-03-01T09:39:02;30.30;;;20.48;;
63818;SDS011;49970;54.976;73.248;2023-03-01T09:41:36;36.08;;;21.25;;
63818;SDS011;49970;54.976;73.248;2023-03-01T09:44:21;33.63;;;22.88;;
63818;SDS011;49970;54.976;73.248;2023-03-01T09:46:57;43.33;;;21.33;;
63818;SDS011;49970;54.976;73.248;2023-03-01T09:49:28;28.65;;;20.40;;
63818;SDS011;49970;54.976;73.248;2023-03-01T09:51:59;36.08;;;22.02;;
63818;SDS011;49970;54.976;73.248;2023-03-01T09:54:26;29.27;;;20.88;;
63818;SDS011;49970;54.976;73.248;2023-03-01T09:57:01;30.55;;;20.55;;
63818;SDS011;49970;54.976;73.248;2023-03-01T09:59:33;32.90;;;21.17;;
63818;SDS011;49970;54.976;73.248;2023-03-01T10:02:39;26.00;;;18.75;;
63818;SDS011;49970;54.976;73.248;2023-03-01T10:10:06;23.33;;;17.33;;
63818;SDS011;49970;54.976;73.248;2023-03-01T10:12:39;31.13;;;19.33;;
63818;SDS011;49970;54.976;73.248;2023-03-01T10:20:25;27.40;;;20.73;;
63818;SDS011;49970;54.976;73.248;2023-03-01T10:23:07;25.60;;;19.40;;
63818;SDS011;49970;54.976;73.248;2023-03-01T10:25:47;25.70;;;19.35;;
63818;SDS011;49970;54.976;73.248;2023-03-01T10:29:34;31.17;;;19.58;;
63818;SDS011;49970;54.976;73.248;2023-03-01T10:33:23;26.25;;;19.58;;
63818;SDS011;49970;54.976;73.248;2023-03-01T10:42:33;30.40;;;20.95;;
63818;SDS011;49970;54.976;73.248;2023-03-01T10:46:31;25.92;;;19.73;;
63818;SDS011;49970;54.976;73.248;2023-03-01T10:50:22;30.95;;;20.80;;
63818;SDS011;49970;54.976;73.248;2023-03-01T10:54:25;31.23;;;20.67;;
63818;SDS011;49970;54.976;73.248;2023-03-01T11:01:28;31.73;;;21.63;;
63818;SDS011;49970;54.976;73.248;2023-03-01T11:05:02;36.47;;;22.53;;
63818;SDS011;49970;54.976;73.248;2023-03-01T11:07:46;34.60;;;22.83;;
63818;SDS011;49970;54.976;73.248;2023-03-01T11:10:31;38.97;;;23.52;;
63818;SDS011;49970;54.976;73.248;2023-03-01T11:15:43;43.45;;;25.05;;
63818;SDS011;49970;54.976;73.248;2023-03-01T11:18:34;34.78;;;23.35;;
63818;SDS011;49970;54.976;73.248;2023-03-01T11:21:05;48.95;;;25.25;;
63818;SDS011;49970;54.976;73.248;2023-03-01T11:23:34;50.80;;;26.52;;
63818;SDS011;49970;54.976;73.248;2023-03-01T11:26:06;46.72;;;25.35;;
63818;SDS011;49970;54.976;73.248;2023-03-01T11:28:44;43.20;;;24.58;;
63818;SDS011;49970;54.976;73.248;2023-03-01T11:31:22;42.10;;;25.38;;
63818;SDS011;49970;54.976;73.248;2023-03-01T11:33:58;43.85;;;25.55;;
63818;SDS011;49970;54.976;73.248;2023-03-01T11:36:41;41.47;;;26.95;;
63818;SDS011;49970;54.976;73.248;2023-03-01T11:42:09;41.67;;;26.27;;
63818;SDS011;49970;54.976;73.248;2023-03-01T11:44:49;50.90;;;24.92;;
63818;SDS011;49970;54.976;73.248;2023-03-01T11:53:26;46.28;;;26.00;;
63818;SDS011;49970;54.976;73.248;2023-03-01T11:56:16;45.90;;;27.20;;
63818;SDS011;49970;54.976;73.248;2023-03-01T12:01:48;44.58;;;23.95;;
63818;SDS011;49970;54.976;73.248;2023-03-01T12:07:13;54.58;;;28.27;;
63818;SDS011;49970;54.976;73.248;2023-03-01T12:09:57;58.33;;;28.83;;
63818;SDS011;49970;54.976;73.248;2023-03-01T12:18:10;58.03;;;29.25;;
63818;SDS011;49970;54.976;73.248;2023-03-01T12:29:26;54.28;;;29.77;;
63818;SDS011;49970;54.976;73.248;2023-03-01T12:32:04;48.33;;;29.25;;
63818;SDS011;49970;54.976;73.248;2023-03-01T12:37:52;54.15;;;29.45;;
63818;SDS011;49970;54.976;73.248;2023-03-01T12:43:44;55.90;;;29.02;;
63818;SDS011;49970;54.976;73.248;2023-03-01T12:49:28;53.30;;;29.20;;
63818;SDS011;49970;54.976;73.248;2023-03-01T12:52:57;60.60;;;30.20;;
63818;SDS011;49970;54.976;73.248;2023-03-01T12:58:25;64.28;;;29.92;;
63818;SDS011;49970;54.976;73.248;2023-03-01T13:01:33;52.80;;;27.77;;
63818;SDS011;49970;54.976;73.248;2023-03-01T13:10:06;49.35;;;26.23;;
63818;SDS011;49970;54.976;73.248;2023-03-01T13:15:32;47.63;;;24.45;;
63818;SDS011;49970;54.976;73.248;2023-03-01T13:18:27;53.60;;;25.33;;
63818;SDS011;49970;54.976;73.248;2023-03-01T13:20:56;51.53;;;24.77;;
63818;SDS011;49970;54.976;73.248;2023-03-01T13:23:26;48.10;;;24.90;;
63818;SDS011;49970;54.976;73.248;2023-03-01T13:26:01;48.58;;;25.38;;
63818;SDS011;49970;54.976;73.248;2023-03-01T13:33:47;46.35;;;24.25;;
63818;SDS011;49970;54.976;73.248;2023-03-01T13:39:04;56.15;;;26.40;;
63818;SDS011;49970;54.976;73.248;2023-03-01T13:41:52;47.05;;;23.90;;
63818;SDS011;49970;54.976;73.248;2023-03-01T13:46:53;54.63;;;25.17;;
63818;SDS011;49970;54.976;73.248;2023-03-01T13:49:33;47.65;;;25.90;;
63818;SDS011;49970;54.976;73.248;2023-03-01T13:52:20;56.60;;;26.15;;
63818;SDS011;49970;54.976;73.248;2023-03-01T13:54:55;53.78;;;25.67;;
63818;SDS011;49970;54.976;73.248;2023-03-01T13:57:24;48.90;;;26.17;;
63818;SDS011;49970;54.976;73.248;2023-03-01T14:00:06;52.45;;;25.08;;
63818;SDS011;49970;54.976;73.248;2023-03-01T14:03:06;49.38;;;26.13;;
63818;SDS011;49970;54.976;73.248;2023-03-01T14:05:44;53.05;;;26.27;;
63818;SDS011;49970;54.976;73.248;2023-03-01T14:08:36;58.97;;;26.05;;
63818;SDS011;49970;54.976;73.248;2023-03-01T14:19:35;44.35;;;25.50;;
63818;SDS011;49970;54.976;73.248;2023-03-01T14:24:52;44.75;;;24.60;;
63818;SDS011;49970;54.976;73.248;2023-03-01T14:30:00;44.80;;;22.20;;
63818;SDS011;49970;54.976;73.248;2023-03-01T14:32:31;39.88;;;23.20;;
63818;SDS011;49970;54.976;73.248;2023-03-01T14:34:59;39.08;;;23.52;;
63818;SDS011;49970;54.976;73.248;2023-03-01T14:37:32;42.15;;;23.70;;
63818;SDS011;49970;54.976;73.248;2023-03-01T14:40:01;41.63;;;25.23;;
63818;SDS011;49970;54.976;73.248;2023-03-01T14:42:34;47.08;;;24.20;;
63818;SDS011;49970;54.976;73.248;2023-03-01T14:45:03;39.10;;;22.00;;
63818;SDS011;49970;54.976;73.248;2023-03-01T14:47:40;41.97;;;23.10;;
63818;SDS011;49970;54.976;73.248;2023-03-01T14:53:02;43.47;;;24.00;;
63818;SDS011;49970;54.976;73.248;2023-03-01T14:55:34;45.70;;;24.85;;
63818;SDS011;49970;54.976;73.248;2023-03-01T14:58:05;45.85;;;25.15;;
63818;SDS011;49970;54.976;73.248;2023-03-01T15:00:35;59.40;;;25.70;;
63818;SDS011;49970;54.976;73.248;2023-03-01T15:03:06;45.08;;;26.15;;
63818;SDS011;49970;54.976;73.248;2023-03-01T15:05:39;46.17;;;24.75;;
63818;SDS011;49970;54.976;73.248;2023-03-01T15:08:18;37.53;;;22.33;;
63818;SDS011;49970;54.976;73.248;2023-03-01T15:11:02;46.35;;;23.13;;
63818;SDS011;49970;54.976;73.248;2023-03-01T15:13:50;34.05;;;22.42;;
63818;SDS011;49970;54.976;73.248;2023-03-01T15:16:18;45.10;;;22.38;;
63818;SDS011;49970;54.976;73.248;2023-03-01T15:19:00;38.63;;;22.55;;
63818;SDS011;49970;54.976;73.248;2023-03-01T15:21:36;37.90;;;23.48;;
63818;SDS011;49970;54.976;73.248;2023-03-01T15:24:06;41.10;;;22.25;;
63818;SDS011;49970;54.976;73.248;2023-03-01T15:26:40;34.35;;;22.92;;
63818;SDS011;49970;54.976;73.248;2023-03-01T15:29:16;38.70;;;24.35;;
63818;SDS011;49970;54.976;73.248;2023-03-01T15:31:57;39.97;;;23.42;;
63818;SDS011;49970;54.976;73.248;2023-03-01T15:34:27;44.83;;;23.70;;
63818;SDS011;49970;54.976;73.248;2023-03-01T15:36:56;38.72;;;22.73;;
63818;SDS011;49970;54.976;73.248;2023-03-01T15:39:41;37.75;;;23.52;;
63818;SDS011;49970;54.976;73.248;2023-03-01T15:47:49;40.00;;;21.85;;
63818;SDS011;49970;54.976;73.248;2023-03-01T15:50:34;35.38;;;20.83;;
63818;SDS011;49970;54.976;73.248;2023-03-01T15:53:12;34.92;;;21.95;;
63818;SDS011;49970;54.976;73.248;2023-03-01T15:55:42;39.65;;;22.10;;
63818;SDS011;49970;54.976;73.248;2023-03-01T15:58:10;35.95;;;22.77;;
63818;SDS011;49970;54.976;73.248;2023-03-01T16:00:39;46.05;;;24.30;;
63818;SDS011;49970;54.976;73.248;2023-03-01T16:03:07;44.20;;;25.08;;
63818;SDS011;49970;54.976;73.248;2023-03-01T16:05:42;42.72;;;24.02;;
63818;SDS011;49970;54.976;73.248;2023-03-01T16:08:09;39.85;;;23.23;;
63818;SDS011;49970;54.976;73.248;2023-03-01T16:10:35;45.08;;;24.05;;
63818;SDS011;49970;54.976;73.248;2023-03-01T16:13:03;35.97;;;22.15;;
63818;SDS011;49970;54.976;73.248;2023-03-01T16:15:32;41.60;;;23.00;;
63818;SDS011;49970;54.976;73.248;2023-03-01T16:18:07;46.13;;;22.25;;
63818;SDS011;49970;54.976;73.248;2023-03-01T16:20:40;33.45;;;20.58;;
63818;SDS011;49970;54.976;73.248;2023-03-01T16:23:08;37.33;;;22.25;;
63818;SDS011;49970;54.976;73.248;2023-03-01T16:25:47;37.10;;;23.13;;
63818;SDS011;49970;54.976;73.248;2023-03-01T16:28:14;32.60;;;22.42;;
63818;SDS011;49970;54.976;73.248;2023-03-01T16:30:44;41.80;;;22.95;;
63818;SDS011;49970;54.976;73.248;2023-03-01T16:33:19;36.58;;;22.33;;
63818;SDS011;49970;54.976;73.248;2023-03-01T16:35:46;45.35;;;23.52;;
63818;SDS011;49970;54.976;73.248;2023-03-01T16:38:24;36.85;;;23.95;;
63818;SDS011;49970;54.976;73.248;2023-03-01T16:40:52;41.08;;;23.77;;